Time;durP1;ratioP1;P1;durP2;ratioP2;P2;SDS_P1;SDS_P2;PMS_P1;PMS_P2;Temp;Humidity;BMP_temperature;BMP_pressure;BME280_temperature;BME280_humidity;BME280_pressure;Samples;Min_cycle;Max_cycle;Signal;HPM_P1;HPM_P2
2021/08/04 00:02:48;;;;;;;;;19.20;19.20;;;;;25.64;74.97;101267.06;4935856;29;9606;-74
2021/08/04 00:05:44;;;;;;;;;22.40;22.40;;;;;25.88;76.73;101275.75;4935198;29;8868;-74
2021/08/04 00:08:40;;;;;;;;;21.00;21.00;;;;;25.74;75.63;101274.69;4934107;29;8996;-73
2021/08/04 00:11:36;;;;;;;;;17.00;17.00;;;;;25.87;75.97;101276.97;4935667;29;8877;-74
2021/08/04 00:14:31;;;;;;;;;25.80;25.80;;;;;25.76;75.83;101274.25;4934456;29;8834;-72
2021/08/04 00:17:28;;;;;;;;;22.60;20.40;;;;;25.63;75.09;101271.13;4916053;29;8985;-73
2021/08/04 00:20:24;;;;;;;;;12.20;12.20;;;;;25.52;75.55;101265.56;4916982;29;8843;-74
2021/08/04 00:23:19;;;;;;;;;21.80;21.80;;;;;25.77;76.03;101270.22;4919574;29;8972;-74
2021/08/04 00:26:07;;;;;;;;;19.20;17.60;;;;;25.93;74.87;101273.25;4920014;29;8859;-75
2021/08/04 00:29:02;;;;;;;;;18.40;18.40;;;;;25.46;76.50;101272.94;4919730;29;8890;-74
2021/08/04 00:31:58;;;;;;;;;22.20;20.40;;;;;25.71;74.81;101281.19;4955630;28;8842;-73
2021/08/04 00:34:54;;;;;;;;;23.40;23.20;;;;;25.22;75.76;101280.41;4945463;28;8855;-74
2021/08/04 00:37:50;;;;;;;;;19.00;19.00;;;;;25.36;76.61;101276.66;4957310;28;8839;-74
2021/08/04 00:40:18;;;;;;;;;19.20;19.20;;;;;25.32;74.03;101298.53;4958860;28;8855;-73
2021/08/04 00:43:14;;;;;;;;;23.20;22.40;;;;;25.22;76.01;101290.91;4957757;28;8854;-74
2021/08/04 00:46:14;;;;;;;;;14.60;14.60;;;;;25.32;77.12;101300.56;4919074;29;8933;-74
2021/08/04 00:49:10;;;;;;;;;15.60;15.60;;;;;25.31;76.92;101301.78;4920939;29;8859;-72
2021/08/04 00:52:07;;;;;;;;;20.00;19.60;;;;;25.30;76.44;101298.13;4919994;29;8843;-74
2021/08/04 00:55:02;;;;;;;;;18.60;18.60;;;;;25.23;77.00;101296.19;4919561;29;8867;-74
2021/08/04 00:57:58;;;;;;;;;22.20;22.00;;;;;24.90;77.52;101291.94;4920057;29;8839;-75
2021/08/04 01:01:03;;;;;;;;;18.00;17.60;;;;;24.48;79.66;101290.22;4918624;29;8961;-74
2021/08/04 01:04:23;;;;;;;;;18.80;18.80;;;;;24.96;78.52;101309.28;4935785;29;8841;-73
2021/08/04 01:07:29;;;;;;;;;18.80;18.80;;;;;24.93;77.98;101307.31;4918282;29;8855;-73
2021/08/04 01:10:29;;;;;;;;;21.00;21.00;;;;;25.32;76.20;101321.19;4903146;29;8858;-73
2021/08/04 01:13:10;;;;;;;;;18.60;18.60;;;;;25.54;75.19;101321.81;4919629;29;8965;-74
2021/08/04 01:16:10;;;;;;;;;17.80;17.80;;;;;25.70;74.62;101333.38;4918715;29;8887;-73
2021/08/04 01:19:21;;;;;;;;;18.40;18.40;;;;;25.71;74.45;101332.19;4918855;29;8866;-73
2021/08/04 01:22:27;;;;;;;;;27.00;26.80;;;;;25.76;73.85;101330.91;4918366;29;8874;-73
2021/08/04 01:25:31;;;;;;;;;25.60;22.20;;;;;25.66;74.00;101323.28;4918383;29;8847;-73
2021/08/04 01:28:57;;;;;;;;;22.60;19.60;;;;;25.77;73.88;101322.00;4918727;29;8907;-74
2021/08/04 01:32:01;;;;;;;;;23.20;22.80;;;;;25.81;73.55;101326.81;4918562;29;8949;-73
2021/08/04 01:34:57;;;;;;;;;26.60;25.20;;;;;25.33;74.05;101331.28;4918420;29;9663;-73
2021/08/04 01:37:53;;;;;;;;;24.00;23.40;;;;;25.22;75.30;101327.72;4937372;29;8829;-73
2021/08/04 01:40:50;;;;;;;;;21.00;21.00;;;;;25.42;74.21;101327.97;4937599;29;8849;-74
2021/08/04 01:43:50;;;;;;;;;24.00;23.20;;;;;25.57;73.97;101325.81;4938366;29;9031;-74
2021/08/04 01:46:20;;;;;;;;;21.00;20.20;;;;;25.47;73.91;101333.19;4938719;29;8973;-74
2021/08/04 01:49:16;;;;;;;;;18.00;17.60;;;;;25.62;73.64;101329.00;4935651;29;9007;-75
2021/08/04 01:51:44;;;;;;;;;18.40;18.40;;;;;25.60;73.93;101328.59;4938047;29;8837;-74
2021/08/04 01:54:41;;;;;;;;;22.60;22.00;;;;;25.26;75.26;101320.03;4937195;29;8860;-74
2021/08/04 01:57:38;;;;;;;;;22.60;22.60;;;;;24.91;75.94;101319.00;4937188;29;8872;-74
2021/08/04 02:00:34;;;;;;;;;23.20;23.20;;;;;24.88;75.50;101333.19;4937131;29;8849;-74
2021/08/04 02:03:29;;;;;;;;;24.80;22.40;;;;;24.31;77.11;101334.28;4936940;29;8903;-74
2021/08/04 02:06:48;;;;;;;;;19.00;19.00;;;;;24.42;79.06;101331.44;4936901;29;8876;-74
2021/08/04 02:09:50;;;;;;;;;22.80;22.80;;;;;24.94;76.95;101335.19;4937073;29;8848;-73
2021/08/04 02:12:55;;;;;;;;;30.20;29.60;;;;;24.83;75.05;101336.44;4937185;29;8864;-74
2021/08/04 02:15:59;;;;;;;;;22.00;22.00;;;;;25.01;75.76;101331.50;4937465;29;8837;-74
2021/08/04 02:19:19;;;;;;;;;23.60;23.00;;;;;25.23;74.90;101333.00;4938216;29;8841;-74
2021/08/04 02:22:24;;;;;;;;;22.20;21.60;;;;;25.37;73.75;101337.72;4936336;29;8841;-74
2021/08/04 02:25:25;;;;;;;;;27.80;27.80;;;;;24.81;74.55;101338.91;4936411;29;8861;-73
2021/08/04 02:28:23;;;;;;;;;20.80;20.60;;;;;25.18;74.50;101330.59;4923828;29;8857;-74
2021/08/04 02:31:19;;;;;;;;;20.20;20.20;;;;;24.94;75.42;101348.53;4935906;29;8849;-74
2021/08/04 02:34:17;;;;;;;;;27.20;26.40;;;;;25.20;73.93;101347.94;4917753;29;8846;-74
2021/08/04 02:37:12;;;;;;;;;23.80;22.80;;;;;25.18;74.46;101346.78;4917076;29;9625;-72
2021/08/04 02:40:09;;;;;;;;;24.60;24.60;;;;;25.29;73.35;101361.63;4917945;29;8835;-73
2021/08/04 02:43:07;;;;;;;;;23.00;23.00;;;;;25.30;73.82;101360.41;4917213;29;8878;-73
2021/08/04 02:46:03;;;;;;;;;22.80;22.20;;;;;25.41;73.23;101366.00;4917501;29;8926;-73
2021/08/04 02:48:59;;;;;;;;;27.00;26.20;;;;;25.46;72.56;101368.41;4917194;29;8861;-73
2021/08/04 02:51:28;;;;;;;;;23.20;23.20;;;;;25.50;72.58;101363.50;4918621;29;8983;-73
2021/08/04 02:54:23;;;;;;;;;24.00;23.00;;;;;25.33;73.15;101355.97;4905691;29;8851;-73
2021/08/04 02:57:19;;;;;;;;;25.40;24.20;;;;;25.39;72.78;101357.94;4904194;29;8878;-73
2021/08/04 03:00:15;;;;;;;;;23.00;23.00;;;;;25.42;72.68;101361.94;4918349;29;8847;-74
2021/08/04 03:03:11;;;;;;;;;29.80;28.40;;;;;25.01;73.90;101359.81;4932504;29;8853;-74
2021/08/04 03:06:06;;;;;;;;;23.00;23.00;;;;;25.29;73.04;101367.28;4935014;29;8857;-74
2021/08/04 03:09:03;;;;;;;;;11.00;11.00;;;;;25.38;72.63;101373.31;4936689;29;8915;-74
2021/08/04 03:11:58;;;;;;;;;27.00;25.20;;;;;25.37;72.54;101380.19;4935715;29;8852;-74
2021/08/04 03:14:26;;;;;;;;;21.40;21.40;;;;;25.20;73.33;101378.28;4936712;29;8860;-74
2021/08/04 03:16:54;;;;;;;;;25.40;25.40;;;;;25.17;73.82;101384.78;4941685;28;9633;-75
2021/08/04 03:19:50;;;;;;;;;31.60;30.20;;;;;24.86;74.47;101386.56;4925127;29;8864;-73
2021/08/04 03:22:48;;;;;;;;;25.80;25.80;;;;;24.65;74.99;101379.78;4934863;29;8884;-73
2021/08/04 03:25:43;;;;;;;;;29.40;29.20;;;;;24.64;74.69;101389.50;4936020;29;8853;-73
2021/08/04 03:28:39;;;;;;;;;19.80;19.80;;;;;24.38;74.07;101382.34;4934810;29;8837;-74
2021/08/04 03:31:34;;;;;;;;;24.20;24.20;;;;;24.70;75.59;101395.53;4935789;29;8852;-74
2021/08/04 03:34:30;;;;;;;;;24.20;24.20;;;;;24.60;74.49;101394.34;4934944;29;9038;-73
2021/08/04 03:37:26;;;;;;;;;28.00;26.60;;;;;24.58;73.96;101396.78;4935066;29;8871;-73
2021/08/04 03:40:21;;;;;;;;;25.00;25.00;;;;;24.23;74.27;101394.88;4934933;29;8933;-73
2021/08/04 03:43:17;;;;;;;;;18.20;17.80;;;;;24.72;74.40;101397.94;4935172;29;8869;-74
2021/08/04 03:46:13;;;;;;;;;18.60;18.00;;;;;24.75;74.11;101402.78;4934936;29;8869;-73
2021/08/04 03:49:08;;;;;;;;;22.80;22.80;;;;;24.92;72.84;101402.69;4934905;29;8869;-74
2021/08/04 03:52:04;;;;;;;;;19.20;19.20;;;;;24.99;72.53;101403.84;4934990;29;8849;-74
2021/08/04 03:55:00;;;;;;;;;22.80;22.20;;;;;25.02;72.22;101412.34;4935043;29;8838;-73
2021/08/04 03:57:55;;;;;;;;;18.20;18.20;;;;;25.15;72.19;101418.34;4934673;29;9223;-74
2021/08/04 04:00:51;;;;;;;;;22.40;22.40;;;;;25.25;70.74;101414.66;4914307;29;8963;-74
2021/08/04 04:03:46;;;;;;;;;17.80;17.60;;;;;25.07;71.35;101420.41;4903919;29;8858;-74
2021/08/04 04:06:42;;;;;;;;;20.80;20.60;;;;;25.25;71.75;101428.00;4922597;29;9607;-74
2021/08/04 04:09:39;;;;;;;;;24.40;24.40;;;;;25.07;70.25;101428.91;4924819;29;8917;-72
2021/08/04 04:12:29;;;;;;;;;27.40;27.00;;;;;24.70;70.76;101434.34;4940284;29;8864;-73
2021/08/04 04:15:25;;;;;;;;;19.60;19.60;;;;;24.67;70.59;101431.09;4949492;29;8932;-74
2021/08/04 04:18:20;;;;;;;;;30.00;29.60;;;;;24.96;71.32;101428.13;4941080;29;8865;-73
2021/08/04 04:21:16;;;;;;;;;27.80;27.60;;;;;24.91;70.04;101432.19;4941392;29;8988;-73
2021/08/04 04:24:11;;;;;;;;;24.60;24.40;;;;;24.97;70.75;101435.41;4934527;29;9583;-73
2021/08/04 04:27:07;;;;;;;;;41.50;36.25;;;;;24.61;65.76;101431.91;4934442;29;8858;-74
2021/08/04 04:29:37;;;;;;;;;28.00;28.00;;;;;24.71;70.05;101428.25;4935951;29;8940;-73
2021/08/04 04:32:18;;;;;;;;;28.60;28.20;;;;;24.82;69.38;101425.38;4935533;29;8975;-74
2021/08/04 04:35:14;;;;;;;;;28.80;28.40;;;;;24.70;70.25;101432.31;4934997;29;8885;-73
2021/08/04 04:38:03;;;;;;;;;29.00;28.40;;;;;24.71;71.87;101433.91;4935157;29;9645;-75
2021/08/04 04:41:01;;;;;;;;;29.00;28.60;;;;;25.02;72.27;101439.84;4922840;29;9728;-75
2021/08/04 04:43:42;;;;;;;;;32.00;30.60;;;;;25.19;70.99;101439.75;4934790;29;8860;-75
2021/08/04 04:46:38;;;;;;;;;24.40;24.00;;;;;25.17;67.26;101445.03;4936420;29;8845;-75
2021/08/04 04:49:05;;;;;;;;;32.00;30.00;;;;;25.12;69.70;101436.16;4934635;29;8864;-75
2021/08/04 04:52:01;;;;;;;;;26.00;24.00;;;;;25.26;69.91;101443.78;4934322;29;9560;-76
2021/08/04 04:54:44;;;;;;;;;30.80;29.80;;;;;25.24;69.52;101441.34;4936301;29;8865;-76
2021/08/04 04:57:40;;;;;;;;;19.20;19.20;;;;;25.28;67.72;101446.97;4934383;29;8875;-77
2021/08/04 05:00:09;;;;;;;;;16.00;16.00;;;;;25.26;64.92;101450.22;4934908;29;8849;-75
2021/08/04 05:03:05;;;;;;;;;18.20;18.20;;;;;25.46;68.09;101456.19;4915344;29;8923;-76
2021/08/04 05:06:00;;;;;;;;;21.80;21.40;;;;;25.72;67.91;101458.44;4933020;29;8976;-76
2021/08/04 05:08:28;;;;;;;;;18.40;18.40;;;;;25.76;67.99;101456.38;4932488;28;8882;-75
2021/08/04 05:10:57;;;;;;;;;14.80;13.80;;;;;25.77;66.30;101457.19;4942542;28;8904;-75
2021/08/04 05:13:25;;;;;;;;;18.60;18.20;;;;;25.79;67.48;101454.75;4958139;28;8867;-76
2021/08/04 05:16:21;;;;;;;;;14.60;14.60;;;;;25.82;65.92;101461.59;4942276;29;8864;-76
2021/08/04 05:18:49;;;;;;;;;13.20;13.20;;;;;25.80;63.87;101458.38;4939797;28;8884;-76
2021/08/04 05:21:59;;;;;;;;;17.80;17.80;;;;;25.61;64.42;101466.19;4935399;29;8860;-75
2021/08/04 05:24:41;;;;;;;;;13.20;13.20;;;;;25.80;64.98;101455.53;4938578;29;9036;-76
2021/08/04 05:27:11;;;;;;;;;14.00;14.00;;;;;25.91;64.92;101459.06;4941724;28;9628;-75
2021/08/04 05:29:38;;;;;;;;;18.20;18.20;;;;;25.58;63.39;101454.88;4947531;28;8889;-75
2021/08/04 05:32:07;;;;;;;;;14.20;14.20;;;;;25.42;64.38;101458.22;4934503;28;8853;-76
2021/08/04 05:34:49;;;;;;;;;14.80;14.80;;;;;25.59;65.97;101465.78;4919819;28;8865;-77
2021/08/04 05:37:16;;;;;;;;;17.20;17.20;;;;;25.16;62.38;101460.41;4935242;28;8920;-74
2021/08/04 05:39:44;;;;;;;;;16.80;16.80;;;;;25.16;64.98;101474.56;4936704;29;8856;-76
2021/08/04 05:42:12;;;;;;;;;20.80;20.80;;;;;25.42;65.02;101461.06;4925389;29;8853;-75
2021/08/04 05:44:40;;;;;;;;;17.80;17.80;;;;;25.81;65.68;101462.81;4935433;29;8856;-75
2021/08/04 05:47:08;;;;;;;;;22.40;21.60;;;;;25.97;65.24;101466.72;4932679;29;8849;-76
2021/08/04 05:50:05;;;;;;;;;27.60;27.20;;;;;25.49;62.89;101464.66;4922592;29;8836;-76
2021/08/04 05:52:37;;;;;;;;;21.40;21.40;;;;;25.74;61.78;101464.47;4937312;29;8883;-76
2021/08/04 05:55:33;;;;;;;;;22.00;22.00;;;;;25.98;63.56;101467.53;4937199;29;8868;-76
2021/08/04 05:58:01;;;;;;;;;33.00;30.40;;;;;26.30;63.94;101470.03;4937766;29;8930;-74
2021/08/04 06:00:42;;;;;;;;;52.25;43.50;;;;;26.40;62.75;101471.22;4938017;29;8888;-74
2021/08/04 06:03:10;;;;;;;;;18.40;18.20;;;;;26.55;63.96;101464.97;4937490;29;8872;-74
2021/08/04 06:05:57;;;;;;;;;36.80;33.60;;;;;26.46;63.82;101466.69;4922148;29;8940;-75
2021/08/04 06:08:39;;;;;;;;;49.00;41.25;;;;;26.74;62.80;101455.00;4936101;28;8913;-74
2021/08/04 06:11:06;;;;;;;;;54.00;44.00;;;;;26.89;62.92;101459.25;4936675;29;8854;-75
2021/08/04 06:13:34;;;;;;;;;47.60;39.40;;;;;26.99;63.05;101459.53;4919704;29;8904;-78
2021/08/04 06:16:03;;;;;;;;;43.20;37.20;;;;;26.87;60.99;101461.72;4936943;29;8853;-75
2021/08/04 06:18:31;;;;;;;;;47.80;39.20;;;;;27.09;61.17;101467.97;4936782;29;8829;-75
2021/08/04 06:20:58;;;;;;;;;49.80;40.20;;;;;27.19;58.94;101463.38;4940258;29;8829;-75
2021/08/04 06:23:39;;;;;;;;;54.75;44.75;;;;;27.27;59.26;101464.88;4922047;29;8899;-76
2021/08/04 06:26:07;;;;;;;;;56.75;46.00;;;;;27.32;59.43;101460.75;4937250;29;8884;-75
2021/08/04 06:28:43;;;;;;;;;50.50;42.25;;;;;27.45;59.42;101458.91;4937657;29;8869;-75
2021/08/04 06:31:12;;;;;;;;;60.25;47.00;;;;;27.52;57.62;101466.53;4940260;29;8867;-75
2021/08/04 06:33:53;;;;;;;;;52.75;44.00;;;;;27.62;58.88;101468.41;4956183;29;8888;-75
2021/08/04 06:36:36;;;;;;;;;60.75;49.50;;;;;27.73;57.55;101477.59;4938661;29;9765;-76
2021/08/04 06:39:04;;;;;;;;;66.50;51.75;;;;;27.73;58.87;101482.47;4921791;29;8955;-76
2021/08/04 06:41:32;;;;;;;;;61.00;48.75;;;;;27.79;59.19;101487.25;4938551;29;9618;-78
2021/08/04 06:44:00;;;;;;;;;66.25;55.00;;;;;27.78;58.92;101485.63;4937611;29;8862;-77
2021/08/04 06:46:41;;;;;;;;;56.50;46.25;;;;;27.89;56.71;101486.25;4936661;29;8861;-76
2021/08/04 06:49:09;;;;;;;;;56.50;45.50;;;;;27.76;53.46;101493.81;4936823;29;8868;-77
2021/08/04 06:51:51;;;;;;;;;55.00;45.00;;;;;27.90;56.98;101485.00;4935413;28;8873;-77
2021/08/04 06:54:19;;;;;;;;;63.75;51.00;;;;;28.10;56.62;101484.28;4920169;29;8884;-76
2021/08/04 06:56:47;;;;;;;;;58.25;47.25;;;;;28.37;56.92;101482.22;4932944;28;8912;-75
2021/08/04 06:59:15;;;;;;;;;42.60;36.80;;;;;28.36;55.39;101479.78;4935006;29;8895;-75
2021/08/04 07:02:11;;;;;;;;;36.20;32.60;;;;;28.43;55.26;101479.66;4936792;29;8857;-76
2021/08/04 07:04:52;;;;;;;;;39.20;32.60;;;;;28.23;53.84;101485.28;4936506;29;8967;-78
2021/08/04 07:07:22;;;;;;;;;31.80;30.40;;;;;28.38;52.20;101483.81;4936953;28;8837;-75
2021/08/04 07:09:50;;;;;;;;;32.80;30.20;;;;;28.64;53.32;101479.22;4945630;28;8862;-76
2021/08/04 07:12:18;;;;;;;;;33.60;30.40;;;;;28.67;52.26;101472.66;4939031;28;8874;-70
2021/08/04 07:14:54;;;;;;;;;27.60;27.60;;;;;28.40;49.58;101472.00;4942850;29;8877;-75
2021/08/04 07:17:22;;;;;;;;;27.40;27.20;;;;;28.78;51.23;101473.25;4936729;29;9061;-76
2021/08/04 07:19:50;;;;;;;;;14.40;14.40;;;;;28.71;49.56;101469.75;4937087;29;8860;-77
2021/08/04 07:22:18;;;;;;;;;13.60;13.60;;;;;28.79;50.68;101476.91;4920190;29;8883;-77
2021/08/04 07:24:48;;;;;;;;;17.40;15.40;;;;;28.77;49.78;101470.84;4936930;29;8865;-78
2021/08/04 07:27:16;;;;;;;;;9.60;9.60;;;;;28.49;48.21;101467.31;4951146;28;8859;-78
2021/08/04 07:29:56;;;;;;;;;19.00;18.40;;;;;28.83;49.38;101468.28;4955259;28;8886;-78
2021/08/04 07:32:24;;;;;;;;;22.00;22.00;;;;;28.94;48.45;101469.69;4938148;29;8881;-78
2021/08/04 07:34:53;;;;;;;;;11.80;11.80;;;;;29.32;48.96;101469.28;4936428;29;8887;-77
2021/08/04 07:37:21;;;;;;;;;14.60;14.60;;;;;29.41;48.35;101462.97;4935845;29;8857;-78
2021/08/04 07:39:49;;;;;;;;;16.80;16.20;;;;;29.47;47.57;101472.59;4935438;29;8846;-78
2021/08/04 07:42:17;;;;;;;;;7.00;7.00;;;;;28.95;43.59;101476.19;4935650;29;8877;-77
2021/08/04 07:45:17;;;;;;;;;10.00;10.00;;;;;28.70;44.82;101477.50;4916529;29;8922;-77
2021/08/04 07:47:45;;;;;;;;;12.40;12.40;;;;;28.87;47.79;101477.56;4917253;29;8854;-78
2021/08/04 07:50:16;;;;;;;;;11.00;11.00;;;;;28.91;48.13;101481.97;4929863;29;8864;-76
2021/08/04 07:53:12;;;;;;;;;10.00;10.00;;;;;28.54;46.89;101477.41;4932141;29;8857;-77
2021/08/04 07:56:08;;;;;;;;;10.00;10.00;;;;;28.61;48.05;101485.81;4936108;29;8887;-75
2021/08/04 07:58:38;;;;;;;;;12.60;12.60;;;;;28.76;47.92;101481.44;4936117;29;9657;-76
2021/08/04 08:01:06;;;;;;;;;10.40;10.40;;;;;29.07;47.26;101479.19;4936481;29;8865;-77
2021/08/04 08:03:35;;;;;;;;;9.60;9.60;;;;;29.13;47.82;101470.09;4938446;29;9591;-76
2021/08/04 08:06:03;;;;;;;;;7.40;7.40;;;;;29.19;45.40;101474.84;4905513;29;8881;-76
2021/08/04 08:08:31;;;;;;;;;8.00;8.00;;;;;29.35;44.51;101476.94;4936362;29;8860;-76
2021/08/04 08:11:01;;;;;;;;;10.00;10.00;;;;;29.56;45.28;101475.66;4936102;29;8845;-74
2021/08/04 08:13:31;;;;;;;;;10.00;10.00;;;;;29.58;44.87;101476.00;4919773;29;8889;-75
2021/08/04 08:15:59;;;;;;;;;11.80;11.60;;;;;29.52;44.12;101469.22;4919466;29;8852;-76
2021/08/04 08:18:41;;;;;;;;;11.40;11.40;;;;;29.63;43.67;101459.19;4935795;29;8868;-76
2021/08/04 08:21:09;;;;;;;;;13.80;13.80;;;;;30.10;44.41;101458.03;4936211;29;8856;-76
2021/08/04 08:23:36;;;;;;;;;9.60;9.60;;;;;30.07;44.20;101456.06;4936125;29;8845;-75
2021/08/04 08:26:04;;;;;;;;;8.80;8.80;;;;;30.06;43.92;101454.44;4937050;29;8845;-77
2021/08/04 08:28:35;;;;;;;;;8.60;8.60;;;;;30.38;44.32;101457.28;4938776;29;8884;-77
2021/08/04 08:31:02;;;;;;;;;6.60;6.60;;;;;30.27;42.75;101455.94;4921419;29;8864;-77
2021/08/04 08:33:32;;;;;;;;;5.00;5.00;;;;;30.44;42.98;101455.47;4937019;29;8857;-76
2021/08/04 08:36:04;;;;;;;;;5.00;5.00;;;;;30.67;41.82;101453.63;4937332;29;9614;-77
2021/08/04 08:38:33;;;;;;;;;7.40;7.40;;;;;30.37;41.76;101449.16;4936371;29;8856;-77
2021/08/04 08:41:01;;;;;;;;;5.40;5.40;;;;;30.59;40.17;101461.56;4936417;29;8856;-76
2021/08/04 08:43:33;;;;;;;;;5.00;5.00;;;;;30.36;40.17;101459.75;4937935;29;8845;-77
2021/08/04 08:46:02;;;;;;;;;6.00;6.00;;;;;30.66;41.28;101460.59;4940429;29;8864;-75
2021/08/04 08:48:30;;;;;;;;;6.60;6.60;;;;;30.90;41.01;101452.53;4940251;29;8872;-76
2021/08/04 08:50:59;;;;;;;;;7.60;7.60;;;;;31.30;40.89;101452.19;4939455;29;8861;-78
2021/08/04 08:53:26;;;;;;;;;5.00;5.00;;;;;31.50;40.70;101450.69;4939987;29;8825;-76
2021/08/04 08:55:54;;;;;;;;;10.80;10.80;;;;;31.38;40.06;101450.69;4939531;29;8872;-76
2021/08/04 08:58:22;;;;;;;;;11.40;11.40;;;;;31.57;38.99;101448.84;4939931;29;9659;-76
2021/08/04 09:00:51;;;;;;;;;11.00;11.00;;;;;31.12;36.35;101449.84;4939909;29;8957;-76
2021/08/04 09:03:19;;;;;;;;;11.00;11.00;;;;;31.37;40.06;101457.69;4939523;29;8936;-76
2021/08/04 09:05:53;;;;;;;;;7.60;7.60;;;;;31.70;39.86;101453.28;4939207;29;8905;-76
2021/08/04 09:08:23;;;;;;;;;8.00;8.00;;;;;31.74;38.01;101456.81;4939416;29;8865;-76
2021/08/04 09:10:51;;;;;;;;;6.00;6.00;;;;;31.93;36.32;101462.78;4939594;29;8995;-76
2021/08/04 09:13:31;;;;;;;;;9.00;9.00;;;;;32.26;38.12;101469.78;4922966;29;8853;-76
2021/08/04 09:16:07;;;;;;;;;6.40;6.40;;;;;32.33;38.06;101466.69;4923521;29;8845;-76
2021/08/04 09:18:41;;;;;;;;;8.00;8.00;;;;;31.63;38.06;101464.16;4935061;29;8911;-78
2021/08/04 09:21:10;;;;;;;;;7.80;7.80;;;;;31.62;38.94;101462.56;4943631;29;8857;-79
2021/08/04 09:23:55;;;;;;;;;4.80;4.80;;;;;31.68;38.44;101461.53;4922203;29;8895;-77
2021/08/04 09:26:26;;;;;;;;;6.00;6.00;;;;;31.78;36.98;101448.97;4922335;29;8845;-77
2021/08/04 09:29:22;;;;;;;;;6.80;6.80;;;;;31.65;37.74;101450.22;4921307;29;8869;-78
2021/08/04 09:32:09;;;;;;;;;5.80;5.80;;;;;31.86;38.63;101445.88;4945202;29;9675;-78
2021/08/04 09:34:49;;;;;;;;;7.80;7.80;;;;;31.81;37.42;101448.03;4923633;29;9689;-79
2021/08/04 09:37:23;;;;;;;;;7.60;7.60;;;;;31.83;38.20;101438.22;4948126;29;8860;-79
2021/08/04 09:40:21;;;;;;;;;7.20;7.20;;;;;32.21;39.20;101441.78;4949647;29;8888;-75
2021/08/04 09:42:54;;;;;;;;;9.20;8.40;;;;;32.45;39.97;101445.03;4949772;28;8895;-80
2021/08/04 09:45:44;;;;;;;;;10.00;9.40;;;;;32.65;38.51;101441.81;4926100;29;8884;-80
2021/08/04 09:48:16;;;;;;;;;8.00;8.00;;;;;32.80;37.19;101434.28;4934276;28;8868;-80
2021/08/04 09:50:48;;;;;;;;;11.00;11.00;;;;;32.69;36.56;101435.97;4922860;29;8885;-79
2021/08/04 09:53:35;;;;;;;;;7.60;7.60;;;;;32.60;36.00;101428.09;4918610;28;8938;-81
2021/08/04 09:56:17;;;;;;;;;9.40;9.40;;;;;32.35;36.42;101429.81;4931608;28;9776;-78
2021/08/04 09:58:52;;;;;;;;;4.80;4.80;;;;;31.63;36.66;101419.22;4939936;28;8983;-78
2021/08/04 10:01:38;;;;;;;;;8.80;8.80;;;;;31.71;38.80;101420.56;4940796;28;8853;-79
2021/08/04 10:05:02;;;;;;;;;5.00;5.00;;;;;31.95;38.07;101428.78;4936863;29;8915;-79
2021/08/04 10:07:32;;;;;;;;;6.80;6.80;;;;;32.45;38.63;101432.78;4951973;28;9629;-78
2021/08/04 10:10:34;;;;;;;;;7.20;7.20;;;;;32.42;37.91;101434.47;4954526;28;8856;-79
2021/08/04 10:13:26;;;;;;;;;6.20;6.20;;;;;32.59;36.67;101417.94;4938744;29;8854;-79
2021/08/04 10:16:05;;;;;;;;;8.40;8.40;;;;;32.72;37.65;101423.56;4952315;28;8864;-77
2021/08/04 10:18:39;;;;;;;;;6.60;6.00;;;;;32.46;35.38;101431.50;4954923;28;8899;-78
2021/08/04 10:21:22;;;;;;;;;7.80;7.80;;;;;32.10;37.19;101419.25;4948114;29;8893;-78
2021/08/04 10:23:52;;;;;;;;;9.80;9.00;;;;;32.09;37.75;101428.28;4954697;29;8846;-79
2021/08/04 10:26:21;;;;;;;;;10.80;10.80;;;;;32.23;38.73;101416.34;4928320;29;8896;-79
2021/08/04 10:28:55;;;;;;;;;13.00;12.80;;;;;32.36;37.73;101411.41;4942656;28;8840;-79
2021/08/04 10:31:27;;;;;;;;;9.80;9.80;;;;;32.45;37.21;101418.47;4965386;28;8879;-77
2021/08/04 10:34:01;;;;;;;;;12.60;12.60;;;;;32.36;36.70;101425.72;4929534;28;9614;-78
2021/08/04 10:36:41;;;;;;;;;12.40;10.40;;;;;32.82;38.69;101419.47;4952889;29;8890;-78
2021/08/04 10:39:13;;;;;;;;;7.60;7.60;;;;;32.87;36.40;101411.13;4936640;29;8896;-78
2021/08/04 10:42:07;;;;;;;;;0.60;0.60;;;;;33.22;36.29;101416.72;4936787;29;8872;-80
2021/08/04 10:44:39;;;;;;;;;7.80;7.80;;;;;33.45;37.66;101410.44;4940633;29;9733;-78
2021/08/04 10:47:25;;;;;;;;;6.00;6.00;;;;;33.47;36.74;101407.09;4938666;29;8881;-79
2021/08/04 10:50:11;;;;;;;;;9.20;8.40;;;;;33.03;35.90;101410.06;4939028;29;8849;-80
2021/08/04 10:52:58;;;;;;;;;11.00;11.00;;;;;33.59;34.28;101399.66;4939180;29;8911;-77
2021/08/04 10:55:53;;;;;;;;;9.00;9.00;;;;;33.36;34.43;101401.78;4938420;28;8852;-77
2021/08/04 10:58:30;;;;;;;;;6.40;6.40;;;;;33.58;34.54;101406.66;4923626;28;8865;-79
2021/08/04 11:01:24;;;;;;;;;8.60;8.60;;;;;33.67;35.42;101404.63;4918267;28;8887;-79
2021/08/04 11:03:54;;;;;;;;;9.20;9.20;;;;;33.58;37.14;101409.50;4916229;28;8919;-80
2021/08/04 11:06:24;;;;;;;;;13.00;13.00;;;;;33.51;35.13;101402.03;4921588;28;8841;-79
2021/08/04 11:09:17;;;;;;;;;12.60;11.60;;;;;33.71;33.52;101404.44;4929347;28;9591;-79
2021/08/04 11:12:02;;;;;;;;;8.20;8.20;;;;;33.69;34.45;101407.00;4938394;28;8905;-78
2021/08/04 11:14:41;;;;;;;;;8.60;8.60;;;;;33.73;33.59;101399.81;4933639;28;8853;-77
2021/08/04 11:17:24;;;;;;;;;7.60;7.60;;;;;33.78;34.66;101389.00;4938335;29;8862;-78
2021/08/04 11:19:56;;;;;;;;;7.80;7.80;;;;;33.73;33.76;101394.09;4937949;28;8873;-79
2021/08/04 11:22:41;;;;;;;;;9.20;9.20;;;;;34.16;32.42;101397.19;4904526;28;8879;-81
2021/08/04 11:25:42;;;;;;;;;5.80;5.80;;;;;33.83;34.18;101397.00;4946141;28;8891;-79
2021/08/04 11:28:45;;;;;;;;;6.40;6.40;;;;;34.42;32.45;101397.66;4946766;28;8853;-78
2021/08/04 11:31:42;;;;;;;;;7.00;7.00;;;;;34.51;32.71;101387.00;4934203;28;8847;-78
2021/08/04 11:34:39;;;;;;;;;5.00;5.00;;;;;34.20;32.14;101392.06;4933360;28;8856;-78
2021/08/04 11:37:43;;;;;;;;;7.00;7.00;;;;;34.58;33.05;101387.91;4941526;28;8866;-79
2021/08/04 11:40:38;;;;;;;;;6.00;6.00;;;;;34.75;34.32;101389.16;4945595;28;8848;-81
2021/08/04 11:43:34;;;;;;;;;7.40;5.40;;;;;34.65;32.08;101387.59;4928106;28;8839;-80
2021/08/04 11:46:36;;;;;;;;;5.60;5.60;;;;;34.37;33.87;101390.50;4945371;28;8942;-78
2021/08/04 11:49:11;;;;;;;;;6.80;6.80;;;;;34.08;35.17;101393.84;4949749;28;8882;-81
2021/08/04 11:51:45;;;;;;;;;7.60;7.60;;;;;34.15;35.07;101392.72;4948030;28;8884;-80
2021/08/04 11:54:25;;;;;;;;;6.60;6.60;;;;;33.92;36.49;101385.56;4934388;29;8853;-82
2021/08/04 11:56:55;;;;;;;;;5.60;5.60;;;;;33.34;35.94;101381.38;4945888;28;8873;-82
2021/08/04 11:59:27;;;;;;;;;8.00;8.00;;;;;33.02;36.66;101390.50;4956824;29;8855;-81
2021/08/04 12:02:02;;;;;;;;;7.00;7.00;;;;;32.85;37.49;101381.34;4958098;28;8913;-80
2021/08/04 12:04:31;;;;;;;;;6.80;6.80;;;;;32.79;38.30;101384.00;4947980;28;8866;-83
2021/08/04 12:07:05;;;;;;;;;6.60;6.60;;;;;32.60;37.90;101385.16;4925149;28;8937;-82
2021/08/04 12:09:43;;;;;;;;;4.60;4.60;;;;;32.21;36.74;101373.09;4946966;28;8870;-83
2021/08/04 12:12:22;;;;;;;;;5.00;5.00;;;;;32.20;36.40;101374.34;4948124;29;8868;-79
2021/08/04 12:14:51;;;;;;;;;5.00;5.00;;;;;32.82;37.63;101380.19;4946330;29;8850;-80
2021/08/04 12:17:37;;;;;;;;;7.00;7.00;;;;;33.54;35.11;101378.13;4953110;28;8876;-79
2021/08/04 12:20:15;;;;;;;;;4.00;4.00;;;;;34.20;33.46;101377.72;4939541;28;8862;-73
2021/08/04 12:22:43;;;;;;;;;4.60;4.60;;;;;34.36;34.12;101373.75;4944706;28;8851;-73
2021/08/04 12:25:16;;;;;;;;;5.40;5.40;;;;;34.65;34.38;101361.72;4930429;28;8856;-74
2021/08/04 12:27:47;;;;;;;;;2.40;2.40;;;;;34.66;34.61;101358.41;4948219;28;8855;-73
2021/08/04 12:30:21;;;;;;;;;7.20;7.20;;;;;33.90;32.77;101357.34;4941656;28;8907;-74
2021/08/04 12:33:13;;;;;;;;;6.40;6.40;;;;;33.63;38.51;101360.16;4929839;28;8892;-73
2021/08/04 12:39:00;;;;;;;;;7.80;7.80;;;;;32.84;33.79;101362.53;4942729;28;8957;-74
2021/08/04 12:41:28;;;;;;;;;7.00;7.00;;;;;33.17;34.75;101355.06;4948203;28;8934;-73